EGCN Airport Information

Runway Information
Runway 02 Length 9491 ft width 197 ft
Elevation 52 ft Threshold 714 ft Heading 18
Runway 20 Length 9491 ft Width 197 ft
Elevation 26 ft Threshold 281 ft Heading 198
Airport Frequencies
Type APP Name APP Frequency 126.225 MHZ
Type ATIS Name ATIS Frequency 134.95 MHZ
Type EMR Name FIRE Frequency 121.6 MHZ
Type ILS Name Frequency 110.95 MHZ
Type RDR Name RDR Frequency 126.225 MHZ
Type TWR Name TWR Frequency 128.775 MHZ
Airport Navaids
Type NDB Name Doncaster Frequency 338 KHZ
Airport Weather Information & NOTAM
ADDS - METARS form results

(0858 UTC 23 October 2021)
Data provider http://aviationweather.gov/metar/data/
 
METAR text: EGCN 230850Z 17008KT 9999 SCT039 10/07 Q1024
Conditions at: EGCN (DONCASTER SHEFFI, GB) observed 0850 UTC 23 October 2021
Temperature: 10.0°C (50°F)
Dewpoint: 7.0°C (45°F) [RH = 82%]
Pressure (altimeter): 30.24 inches Hg (1024.0 mb)
Winds: from the S (170 degrees) at 9 MPH (8 knots; 4.1 m/s)
Visibility: 6 or more miles (10+ km)
Ceiling: at least 12,000 feet AGL
Clouds: scattered clouds at 3900 feet AGL
Weather: no significant weather observed at this time

METAR text: EGCN 230820Z 19010KT 9999 BKN047 10/08 Q1024
Conditions at: EGCN (DONCASTER SHEFFI, GB) observed 0820 UTC 23 October 2021
Temperature: 10.0°C (50°F)
Dewpoint: 8.0°C (46°F) [RH = 87%]
Pressure (altimeter): 30.24 inches Hg (1024.0 mb)
Winds: from the S (190 degrees) at 12 MPH (10 knots; 5.1 m/s)
Visibility: 6 or more miles (10+ km)
Ceiling: 4700 feet AGL
Clouds: broken clouds at 4700 feet AGL
Weather: no significant weather observed at this time

Forecast for: EGCN (DONCASTER SHEFFI, GB)
Text: TAF EGCN 230453Z 2306/2406 21008KT 9999 SCT045
Forecast period: 0600 UTC 23 October 2021 to 0600 UTC 24 October 2021
Forecast type: FROM: standard forecast or significant change
Winds: from the SSW (210 degrees) at 9 MPH (8 knots; 4.1 m/s)
Visibility: 6 or more miles (10+ km)
Ceiling: at least 12,000 feet AGL
Clouds: scattered clouds at 4500 feet AGL
Weather: no significant weather forecast for this period
Text: PROB30
Forecast period: 0300 to 0600 UTC 24 October 2021
Forecast type: TEMPORARY: The following changes expected for less than half the time period
Winds: from the S (180 degrees) at 17 MPH (15 knots; 7.7 m/s)
gusting to 29 MPH (25 knots; 12.9 m/s)
Visibility: missing
Ceiling: unknown
Clouds: missing
Weather: no significant weather forecast for this period